createdAt,value
2018-11-29T00:03:49.077Z,10.13
2018-11-29T00:09:01.478Z,10.40
2018-11-29T00:13:56.082Z,10.53
2018-11-29T00:18:50.630Z,10.03
2018-11-29T00:23:45.716Z,10.27
2018-11-29T00:28:40.253Z,9.83
2018-11-29T00:33:34.793Z,10.90
2018-11-29T00:38:29.389Z,10.60
2018-11-29T00:43:23.893Z,10.63
2018-11-29T00:48:18.541Z,10.53
2018-11-29T00:53:13.077Z,12.03
2018-11-29T00:58:07.632Z,11.07
2018-11-29T01:03:02.192Z,11.17
2018-11-29T01:08:03.160Z,10.10
2018-11-29T01:12:57.724Z,11.33
2018-11-29T01:17:52.232Z,11.20
2018-11-29T01:22:46.811Z,10.33
2018-11-29T01:27:42.016Z,10.80
2018-11-29T01:32:36.558Z,10.17
2018-11-29T01:37:31.093Z,10.80
2018-11-29T01:42:25.614Z,11.87
2018-11-29T01:47:20.151Z,10.40
2018-11-29T01:52:14.728Z,9.73
2018-11-29T01:57:09.225Z,9.40
2018-11-29T02:02:03.752Z,11.57
2018-11-29T02:06:58.289Z,11.00
2018-11-29T02:11:52.853Z,10.07
2018-11-29T02:16:47.409Z,11.00
2018-11-29T02:21:42.018Z,10.43
2018-11-29T02:26:36.545Z,10.90
2018-11-29T02:31:35.253Z,10.50
2018-11-29T02:36:29.776Z,10.83
2018-11-29T02:41:24.375Z,11.10
2018-11-29T02:46:18.907Z,11.10
2018-11-29T02:51:13.469Z,10.23
2018-11-29T02:56:08.053Z,10.97
2018-11-29T03:01:02.591Z,10.93
2018-11-29T03:05:57.109Z,11.03
2018-11-29T03:10:51.608Z,10.93
2018-11-29T03:15:46.629Z,10.47
2018-11-29T03:20:41.160Z,10.60
2018-11-29T03:25:35.689Z,11.43
2018-11-29T03:30:30.202Z,11.33
2018-11-29T03:35:24.737Z,10.97
2018-11-29T03:40:19.372Z,10.90
2018-11-29T03:45:14.901Z,11.13
2018-11-29T03:50:13.860Z,10.40
2018-11-29T03:55:09.496Z,10.40
2018-11-29T04:00:04.116Z,10.80
2018-11-29T04:04:58.644Z,10.90
2018-11-29T04:09:53.205Z,10.77
2018-11-29T04:14:47.741Z,11.27
2018-11-29T04:19:42.324Z,11.47
2018-11-29T04:24:36.878Z,11.63
2018-11-29T04:29:31.409Z,11.73
2018-11-29T04:34:26.032Z,10.27
2018-11-29T04:39:20.596Z,10.63
2018-11-29T04:44:15.142Z,10.53
2018-11-29T04:49:09.732Z,10.43
2018-11-29T04:54:04.418Z,10.57
2018-11-29T04:58:58.964Z,10.10
2018-11-29T05:03:53.504Z,11.67
2018-11-29T05:08:48.046Z,11.60
2018-11-29T05:13:42.565Z,11.90
2018-11-29T05:18:37.096Z,12.07
2018-11-29T05:23:34.430Z,11.93
2018-11-29T05:28:29.024Z,12.33
2018-11-29T05:33:23.646Z,10.97
2018-11-29T05:38:18.160Z,11.83
2018-11-29T05:43:13.165Z,11.67
2018-11-29T05:48:10.700Z,12.10
2018-11-29T05:53:05.588Z,11.93
2018-11-29T05:58:00.113Z,11.63
2018-11-29T06:02:54.693Z,12.87
2018-11-29T06:07:49.228Z,11.67
2018-11-29T06:12:43.760Z,12.23
2018-11-29T06:17:38.366Z,11.73
2018-11-29T06:22:33.277Z,11.97
2018-11-29T06:27:27.904Z,12.43
2018-11-29T06:32:22.517Z,13.47
2018-11-29T06:37:17.357Z,11.93
2018-11-29T06:42:11.885Z,13.00
2018-11-29T06:47:06.800Z,11.80
2018-11-29T06:52:01.332Z,13.47
2018-11-29T06:56:55.928Z,14.60
2018-11-29T07:01:50.481Z,13.53
2018-11-29T07:06:45.034Z,12.17
2018-11-29T07:11:39.574Z,12.43
2018-11-29T07:16:34.109Z,12.57
2018-11-29T07:21:44.608Z,12.57
2018-11-29T07:26:39.137Z,12.47
2018-11-29T07:31:33.757Z,11.97
2018-11-29T07:36:28.281Z,12.53
2018-11-29T07:41:22.853Z,12.30
2018-11-29T07:46:17.412Z,11.87
2018-11-29T07:51:11.974Z,11.57
2018-11-29T07:56:06.525Z,12.50
2018-11-29T08:01:01.112Z,11.80
2018-11-29T08:05:55.677Z,12.67
2018-11-29T08:10:50.237Z,12.13
2018-11-29T08:15:44.876Z,12.23
2018-11-29T08:20:39.460Z,14.47
2018-11-29T08:25:34.065Z,19.03
2018-11-29T08:30:28.616Z,16.63
2018-11-29T08:35:23.185Z,15.60
2018-11-29T08:40:20.764Z,14.10
2018-11-29T08:45:15.367Z,14.80
2018-11-29T08:50:11.578Z,14.70
2018-11-29T08:55:08.877Z,14.03
2018-11-29T09:00:03.860Z,14.27
2018-11-29T09:04:58.393Z,14.63
2018-11-29T09:09:52.970Z,13.90
2018-11-29T09:14:47.557Z,15.77
2018-11-29T09:19:42.120Z,14.50
2018-11-29T09:24:36.665Z,14.10
2018-11-29T09:29:31.225Z,14.17
2018-11-29T09:34:25.761Z,14.00
2018-11-29T09:39:20.341Z,14.17
2018-11-29T09:44:14.877Z,13.63
2018-11-29T09:49:09.414Z,13.13
2018-11-29T09:54:04.014Z,12.70
2018-11-29T09:58:58.563Z,13.23
2018-11-29T10:03:53.126Z,12.40
2018-11-29T10:08:50.820Z,12.03
2018-11-29T10:13:46.297Z,12.37
2018-11-29T10:18:39.921Z,12.70
2018-11-29T10:23:34.463Z,12.03
2018-11-29T10:28:29.021Z,11.87
2018-11-29T10:33:30.229Z,11.73
2018-11-29T10:38:24.809Z,12.47
2018-11-29T10:43:19.360Z,11.77
2018-11-29T10:48:15.682Z,12.07
2018-11-29T10:53:10.673Z,12.93
2018-11-29T10:58:05.596Z,11.53
2018-11-29T11:03:08.345Z,11.73
2018-11-29T11:08:08.060Z,11.87
2018-11-29T11:12:57.605Z,10.90
2018-11-29T11:17:52.155Z,11.77
2018-11-29T11:22:46.817Z,11.30
2018-11-29T11:27:41.360Z,11.07
2018-11-29T11:32:35.922Z,11.43
2018-11-29T11:37:30.473Z,12.27
2018-11-29T11:42:25.012Z,11.83
2018-11-29T11:47:19.616Z,11.93
2018-11-29T11:52:14.178Z,12.70
2018-11-29T11:57:08.700Z,11.40
2018-11-29T12:02:03.252Z,13.40
2018-11-29T12:06:57.856Z,13.17
2018-11-29T12:11:52.413Z,11.73
2018-11-29T12:16:46.968Z,11.37
2018-11-29T12:21:41.472Z,12.77
2018-11-29T12:26:36.044Z,10.90
2018-11-29T12:31:30.595Z,11.57
2018-11-29T12:36:25.179Z,11.90
2018-11-29T12:41:19.737Z,11.57
2018-11-29T12:46:14.270Z,11.27
2018-11-29T12:51:08.836Z,12.27
2018-11-29T12:56:03.428Z,11.17
2018-11-29T13:00:57.952Z,12.33
2018-11-29T13:05:52.519Z,12.30
2018-11-29T13:10:47.069Z,11.57
2018-11-29T13:15:41.616Z,12.80
2018-11-29T13:20:36.669Z,12.07
2018-11-29T13:25:31.263Z,12.47
2018-11-29T13:30:25.897Z,13.17
2018-11-29T13:35:22.652Z,12.97
2018-11-29T13:45:12.125Z,13.53
2018-11-29T13:50:11.723Z,12.53
2018-11-29T13:55:06.816Z,12.33
2018-11-29T14:00:02.882Z,12.03
2018-11-29T14:04:57.431Z,12.67
2018-11-29T14:09:52.037Z,13.13
2018-11-29T14:14:46.589Z,14.73
2018-11-29T14:19:41.130Z,13.83
2018-11-29T14:24:35.652Z,14.37
2018-11-29T14:29:30.201Z,15.07
2018-11-29T14:34:24.760Z,13.63
2018-11-29T14:39:19.881Z,13.90
2018-11-29T14:44:14.521Z,15.03
2018-11-29T14:49:09.302Z,16.30
2018-11-29T14:54:03.837Z,16.33
2018-11-29T14:58:58.669Z,19.83
2018-11-29T15:03:53.265Z,18.40
2018-11-29T15:08:47.789Z,17.23
2018-11-29T15:13:42.389Z,16.73
2018-11-29T15:18:37.973Z,15.90
2018-11-29T15:23:32.541Z,16.00
2018-11-29T15:28:27.124Z,14.63
2018-11-29T15:33:22.093Z,14.60
2018-11-29T15:38:17.255Z,14.80
2018-11-29T15:43:12.195Z,16.63
2018-11-29T15:48:06.772Z,17.53
2018-11-29T15:53:01.353Z,16.90
2018-11-29T15:57:55.932Z,16.97
2018-11-29T16:02:51.092Z,14.73
2018-11-29T16:07:45.620Z,15.07
2018-11-29T16:12:40.272Z,15.67
2018-11-29T16:17:34.845Z,15.13
2018-11-29T16:22:29.395Z,14.80
2018-11-29T16:27:23.921Z,15.60
2018-11-29T16:32:18.440Z,16.83
2018-11-29T16:37:12.977Z,22.37
2018-11-29T16:42:07.528Z,24.57
2018-11-29T16:47:03.153Z,26.70
2018-11-29T16:51:57.951Z,26.47
2018-11-29T16:56:52.500Z,26.83
2018-11-29T17:01:47.020Z,28.63
2018-11-29T17:06:41.644Z,28.87
2018-11-29T17:11:36.173Z,27.10
2018-11-29T17:16:30.767Z,29.83
2018-11-29T17:21:25.304Z,30.10
2018-11-29T17:26:19.840Z,28.53
2018-11-29T17:31:14.398Z,31.87
2018-11-29T17:36:08.996Z,32.93
2018-11-29T17:41:03.605Z,33.47
2018-11-29T17:45:58.241Z,33.60
2018-11-29T17:50:52.822Z,33.83
2018-11-29T17:55:47.401Z,34.27
2018-11-29T18:00:42.605Z,34.80
2018-11-29T18:05:37.437Z,34.60
2018-11-29T18:10:34.731Z,36.20
2018-11-29T18:15:31.785Z,34.07
2018-11-29T18:20:26.437Z,35.87
2018-11-29T18:25:21.040Z,33.60
2018-11-29T18:30:17.558Z,32.43
2018-11-29T18:35:12.899Z,32.40
2018-11-29T18:40:11.122Z,33.30
2018-11-29T18:45:08.609Z,32.03
2018-11-29T18:50:03.243Z,32.13
2018-11-29T18:55:00.047Z,32.03
2018-11-29T18:59:55.099Z,31.90
2018-11-29T19:04:51.807Z,30.77
2018-11-29T19:09:46.357Z,31.57
2018-11-29T19:14:40.932Z,32.43
2018-11-29T19:19:35.515Z,32.70
2018-11-29T19:24:30.638Z,33.03
2018-11-29T19:29:25.628Z,30.67
2018-11-29T19:34:20.685Z,29.87
2018-11-29T19:39:15.265Z,30.57
2018-11-29T19:44:09.800Z,29.63
2018-11-29T19:49:04.349Z,30.77
2018-11-29T19:53:58.907Z,30.63
2018-11-29T19:58:53.522Z,28.60
2018-11-29T20:03:48.125Z,29.03
2018-11-29T20:08:42.725Z,27.73
2018-11-29T20:13:37.371Z,27.97
2018-11-29T20:18:31.908Z,27.23
2018-11-29T20:23:26.463Z,27.40
2018-11-29T20:28:20.998Z,26.70
2018-11-29T20:33:15.550Z,26.87
2018-11-29T20:38:10.128Z,25.07
2018-11-29T20:43:04.805Z,25.83
2018-11-29T20:48:01.289Z,26.57
2018-11-29T20:52:57.229Z,25.27
2018-11-29T20:57:52.306Z,25.93
2018-11-29T21:02:46.920Z,26.50
2018-11-29T21:07:42.539Z,27.97
2018-11-29T21:12:37.089Z,23.83
2018-11-29T21:17:31.768Z,24.70
2018-11-29T21:22:26.466Z,24.83
2018-11-29T21:27:21.005Z,25.00
2018-11-29T21:32:15.589Z,25.57
2018-11-29T21:37:10.213Z,24.73
2018-11-29T21:42:08.957Z,25.37
2018-11-29T21:47:07.529Z,24.53
2018-11-29T21:52:07.362Z,24.50
2018-11-29T21:57:07.404Z,25.20
2018-11-29T22:02:06.309Z,24.20
2018-11-29T22:07:06.545Z,24.83
2018-11-29T22:12:06.682Z,23.10
2018-11-29T22:17:01.664Z,24.33
2018-11-29T22:21:56.222Z,23.80
2018-11-29T22:26:50.809Z,24.17
2018-11-29T22:31:45.341Z,24.07
2018-11-29T22:36:39.897Z,23.40
2018-11-29T22:41:34.504Z,23.87
2018-11-29T22:46:29.072Z,23.20
2018-11-29T22:51:23.677Z,24.23
2018-11-29T22:56:18.205Z,23.77
2018-11-29T23:01:17.944Z,23.33
2018-11-29T23:06:12.528Z,23.43
2018-11-29T23:11:07.382Z,23.47
2018-11-29T23:16:01.956Z,23.00
2018-11-29T23:20:56.516Z,23.80
2018-11-29T23:25:51.092Z,23.53
2018-11-29T23:30:45.713Z,23.83
2018-11-29T23:35:40.706Z,24.57
2018-11-29T23:40:35.236Z,23.33
2018-11-29T23:45:29.873Z,24.27
2018-11-29T23:50:24.484Z,24.03
2018-11-29T23:55:21.118Z,22.87
